sensor_id;sensor_type;location;lat;lon;timestamp;P1;durP1;ratioP1;P2;durP2;ratioP2
18702;SDS011;9481;48.796;9.210;2022-12-07T00:03:57;5.97;;;4.23;;
18702;SDS011;9481;48.796;9.210;2022-12-07T00:06:32;5.80;;;4.27;;
18702;SDS011;9481;48.796;9.210;2022-12-07T00:09:00;5.30;;;4.33;;
18702;SDS011;9481;48.796;9.210;2022-12-07T00:11:26;6.10;;;4.33;;
18702;SDS011;9481;48.796;9.210;2022-12-07T00:13:53;5.50;;;4.30;;
18702;SDS011;9481;48.796;9.210;2022-12-07T00:16:23;4.90;;;3.73;;
18702;SDS011;9481;48.796;9.210;2022-12-07T00:18:52;6.93;;;4.17;;
18702;SDS011;9481;48.796;9.210;2022-12-07T00:21:20;6.13;;;4.20;;
18702;SDS011;9481;48.796;9.210;2022-12-07T00:23:50;5.83;;;3.80;;
18702;SDS011;9481;48.796;9.210;2022-12-07T00:28:55;5.60;;;4.37;;
18702;SDS011;9481;48.796;9.210;2022-12-07T00:31:27;8.13;;;4.60;;
18702;SDS011;9481;48.796;9.210;2022-12-07T00:34:04;6.23;;;4.37;;
18702;SDS011;9481;48.796;9.210;2022-12-07T00:36:31;5.33;;;4.27;;
18702;SDS011;9481;48.796;9.210;2022-12-07T00:38:57;6.13;;;4.37;;
18702;SDS011;9481;48.796;9.210;2022-12-07T00:41:27;6.77;;;4.80;;
18702;SDS011;9481;48.796;9.210;2022-12-07T00:44:13;6.40;;;4.47;;
18702;SDS011;9481;48.796;9.210;2022-12-07T00:46:39;6.77;;;4.40;;
18702;SDS011;9481;48.796;9.210;2022-12-07T00:49:05;6.93;;;5.10;;
18702;SDS011;9481;48.796;9.210;2022-12-07T00:51:34;5.60;;;4.60;;
18702;SDS011;9481;48.796;9.210;2022-12-07T00:54:02;6.73;;;4.33;;
18702;SDS011;9481;48.796;9.210;2022-12-07T00:56:31;4.77;;;4.10;;
18702;SDS011;9481;48.796;9.210;2022-12-07T00:59:03;7.37;;;4.40;;
18702;SDS011;9481;48.796;9.210;2022-12-07T01:01:30;6.17;;;4.93;;
18702;SDS011;9481;48.796;9.210;2022-12-07T01:03:59;7.43;;;5.07;;
18702;SDS011;9481;48.796;9.210;2022-12-07T01:06:28;5.73;;;4.90;;
18702;SDS011;9481;48.796;9.210;2022-12-07T01:08:55;5.77;;;4.80;;
18702;SDS011;9481;48.796;9.210;2022-12-07T01:11:22;6.83;;;4.70;;
18702;SDS011;9481;48.796;9.210;2022-12-07T01:13:52;5.43;;;4.60;;
18702;SDS011;9481;48.796;9.210;2022-12-07T01:16:21;6.07;;;5.20;;
18702;SDS011;9481;48.796;9.210;2022-12-07T01:18:49;6.53;;;5.23;;
18702;SDS011;9481;48.796;9.210;2022-12-07T01:21:25;7.73;;;5.30;;
18702;SDS011;9481;48.796;9.210;2022-12-07T01:23:54;7.77;;;5.43;;
18702;SDS011;9481;48.796;9.210;2022-12-07T01:26:23;8.80;;;5.53;;
18702;SDS011;9481;48.796;9.210;2022-12-07T01:28:50;6.73;;;5.30;;
18702;SDS011;9481;48.796;9.210;2022-12-07T01:31:20;8.27;;;5.87;;
18702;SDS011;9481;48.796;9.210;2022-12-07T01:33:49;6.97;;;5.27;;
18702;SDS011;9481;48.796;9.210;2022-12-07T01:38:51;7.67;;;5.73;;
18702;SDS011;9481;48.796;9.210;2022-12-07T01:41:21;8.33;;;5.43;;
18702;SDS011;9481;48.796;9.210;2022-12-07T01:46:49;7.00;;;5.43;;
18702;SDS011;9481;48.796;9.210;2022-12-07T01:49:38;7.07;;;5.53;;
18702;SDS011;9481;48.796;9.210;2022-12-07T01:52:17;6.83;;;5.50;;
18702;SDS011;9481;48.796;9.210;2022-12-07T01:54:51;7.57;;;5.60;;
18702;SDS011;9481;48.796;9.210;2022-12-07T01:57:20;7.93;;;5.60;;
18702;SDS011;9481;48.796;9.210;2022-12-07T01:59:47;6.37;;;5.23;;
18702;SDS011;9481;48.796;9.210;2022-12-07T02:02:34;7.00;;;5.47;;
18702;SDS011;9481;48.796;9.210;2022-12-07T02:05:09;7.27;;;5.23;;
18702;SDS011;9481;48.796;9.210;2022-12-07T02:07:36;6.83;;;5.60;;
18702;SDS011;9481;48.796;9.210;2022-12-07T02:10:17;6.20;;;5.00;;
18702;SDS011;9481;48.796;9.210;2022-12-07T02:12:49;10.43;;;5.67;;
18702;SDS011;9481;48.796;9.210;2022-12-07T02:15:21;7.20;;;5.70;;
18702;SDS011;9481;48.796;9.210;2022-12-07T02:18:01;7.37;;;5.70;;
18702;SDS011;9481;48.796;9.210;2022-12-07T02:21:00;8.30;;;5.83;;
18702;SDS011;9481;48.796;9.210;2022-12-07T02:29:49;6.23;;;5.00;;
18702;SDS011;9481;48.796;9.210;2022-12-07T02:32:44;6.77;;;4.87;;
18702;SDS011;9481;48.796;9.210;2022-12-07T02:35:40;7.47;;;5.43;;
18702;SDS011;9481;48.796;9.210;2022-12-07T02:41:29;7.17;;;5.40;;
18702;SDS011;9481;48.796;9.210;2022-12-07T02:44:02;7.40;;;5.77;;
18702;SDS011;9481;48.796;9.210;2022-12-07T02:46:38;7.20;;;5.30;;
18702;SDS011;9481;48.796;9.210;2022-12-07T02:49:09;8.27;;;5.60;;
18702;SDS011;9481;48.796;9.210;2022-12-07T02:51:39;8.93;;;6.00;;
18702;SDS011;9481;48.796;9.210;2022-12-07T02:54:10;7.43;;;5.50;;
18702;SDS011;9481;48.796;9.210;2022-12-07T02:56:50;6.97;;;5.13;;
18702;SDS011;9481;48.796;9.210;2022-12-07T03:05:22;7.07;;;4.97;;
18702;SDS011;9481;48.796;9.210;2022-12-07T03:08:13;8.73;;;5.73;;
18702;SDS011;9481;48.796;9.210;2022-12-07T03:11:00;6.87;;;5.27;;
18702;SDS011;9481;48.796;9.210;2022-12-07T03:16:31;7.03;;;5.27;;
18702;SDS011;9481;48.796;9.210;2022-12-07T03:19:14;7.83;;;5.10;;
18702;SDS011;9481;48.796;9.210;2022-12-07T03:21:46;7.47;;;5.00;;
18702;SDS011;9481;48.796;9.210;2022-12-07T03:24:30;5.97;;;5.00;;
18702;SDS011;9481;48.796;9.210;2022-12-07T03:27:11;7.53;;;5.40;;
18702;SDS011;9481;48.796;9.210;2022-12-07T03:29:50;7.77;;;5.40;;
18702;SDS011;9481;48.796;9.210;2022-12-07T03:35:14;7.53;;;5.83;;
18702;SDS011;9481;48.796;9.210;2022-12-07T03:38:18;7.97;;;5.80;;
18702;SDS011;9481;48.796;9.210;2022-12-07T03:40:52;7.93;;;5.07;;
18702;SDS011;9481;48.796;9.210;2022-12-07T03:43:28;8.47;;;5.57;;
18702;SDS011;9481;48.796;9.210;2022-12-07T03:46:06;6.97;;;5.33;;
18702;SDS011;9481;48.796;9.210;2022-12-07T03:51:55;8.40;;;5.80;;
18702;SDS011;9481;48.796;9.210;2022-12-07T03:54:45;7.73;;;5.67;;
18702;SDS011;9481;48.796;9.210;2022-12-07T03:57:39;8.27;;;6.10;;
18702;SDS011;9481;48.796;9.210;2022-12-07T04:00:09;6.67;;;4.90;;
18702;SDS011;9481;48.796;9.210;2022-12-07T04:02:37;7.33;;;5.67;;
18702;SDS011;9481;48.796;9.210;2022-12-07T04:05:03;8.07;;;5.63;;
18702;SDS011;9481;48.796;9.210;2022-12-07T04:07:30;6.87;;;5.53;;
18702;SDS011;9481;48.796;9.210;2022-12-07T04:09:55;7.47;;;5.37;;
18702;SDS011;9481;48.796;9.210;2022-12-07T04:12:21;7.80;;;5.60;;
18702;SDS011;9481;48.796;9.210;2022-12-07T04:14:47;6.37;;;4.87;;
18702;SDS011;9481;48.796;9.210;2022-12-07T04:17:13;6.33;;;4.80;;
18702;SDS011;9481;48.796;9.210;2022-12-07T04:19:39;7.67;;;5.50;;
18702;SDS011;9481;48.796;9.210;2022-12-07T04:22:05;7.70;;;5.50;;
18702;SDS011;9481;48.796;9.210;2022-12-07T04:24:31;7.80;;;5.37;;
18702;SDS011;9481;48.796;9.210;2022-12-07T04:26:58;7.67;;;5.53;;
18702;SDS011;9481;48.796;9.210;2022-12-07T04:29:24;6.63;;;5.30;;
18702;SDS011;9481;48.796;9.210;2022-12-07T04:31:50;8.60;;;5.60;;
18702;SDS011;9481;48.796;9.210;2022-12-07T04:34:17;7.17;;;5.30;;
18702;SDS011;9481;48.796;9.210;2022-12-07T04:36:43;6.77;;;5.70;;
18702;SDS011;9481;48.796;9.210;2022-12-07T04:39:28;8.47;;;5.73;;
18702;SDS011;9481;48.796;9.210;2022-12-07T04:41:58;7.27;;;5.60;;
18702;SDS011;9481;48.796;9.210;2022-12-07T04:44:25;7.50;;;5.57;;
18702;SDS011;9481;48.796;9.210;2022-12-07T04:46:53;6.90;;;5.13;;
18702;SDS011;9481;48.796;9.210;2022-12-07T04:49:20;7.23;;;5.27;;
18702;SDS011;9481;48.796;9.210;2022-12-07T04:51:46;6.20;;;4.80;;
18702;SDS011;9481;48.796;9.210;2022-12-07T04:54:13;6.73;;;4.77;;
18702;SDS011;9481;48.796;9.210;2022-12-07T04:56:40;7.03;;;5.07;;
18702;SDS011;9481;48.796;9.210;2022-12-07T04:59:07;7.40;;;4.47;;
18702;SDS011;9481;48.796;9.210;2022-12-07T05:01:35;4.67;;;3.50;;
18702;SDS011;9481;48.796;9.210;2022-12-07T05:04:00;4.83;;;3.20;;
18702;SDS011;9481;48.796;9.210;2022-12-07T05:06:27;4.93;;;3.53;;
18702;SDS011;9481;48.796;9.210;2022-12-07T05:08:52;4.87;;;4.00;;
18702;SDS011;9481;48.796;9.210;2022-12-07T05:11:18;6.80;;;3.63;;
18702;SDS011;9481;48.796;9.210;2022-12-07T05:14:03;4.93;;;3.47;;
18702;SDS011;9481;48.796;9.210;2022-12-07T05:16:38;3.97;;;3.23;;
18702;SDS011;9481;48.796;9.210;2022-12-07T05:19:04;5.07;;;3.33;;
18702;SDS011;9481;48.796;9.210;2022-12-07T05:21:31;4.07;;;3.10;;
18702;SDS011;9481;48.796;9.210;2022-12-07T05:23:57;3.33;;;2.97;;
18702;SDS011;9481;48.796;9.210;2022-12-07T05:26:23;3.97;;;3.03;;
18702;SDS011;9481;48.796;9.210;2022-12-07T05:28:52;5.10;;;3.30;;
18702;SDS011;9481;48.796;9.210;2022-12-07T05:31:19;3.97;;;3.10;;
18702;SDS011;9481;48.796;9.210;2022-12-07T05:33:46;6.57;;;3.30;;
18702;SDS011;9481;48.796;9.210;2022-12-07T05:36:12;3.40;;;3.00;;
18702;SDS011;9481;48.796;9.210;2022-12-07T05:38:38;5.20;;;3.37;;
18702;SDS011;9481;48.796;9.210;2022-12-07T05:41:04;3.87;;;3.07;;
18702;SDS011;9481;48.796;9.210;2022-12-07T05:43:32;3.50;;;2.80;;
18702;SDS011;9481;48.796;9.210;2022-12-07T05:45:58;5.27;;;3.77;;
18702;SDS011;9481;48.796;9.210;2022-12-07T05:48:25;3.90;;;3.13;;
18702;SDS011;9481;48.796;9.210;2022-12-07T05:50:51;3.80;;;3.40;;
18702;SDS011;9481;48.796;9.210;2022-12-07T05:53:17;4.03;;;3.23;;
18702;SDS011;9481;48.796;9.210;2022-12-07T05:55:44;4.07;;;3.33;;
18702;SDS011;9481;48.796;9.210;2022-12-07T05:58:09;5.23;;;3.53;;
18702;SDS011;9481;48.796;9.210;2022-12-07T06:00:57;6.87;;;4.10;;
18702;SDS011;9481;48.796;9.210;2022-12-07T06:03:22;5.10;;;3.90;;
18702;SDS011;9481;48.796;9.210;2022-12-07T06:05:48;8.60;;;4.60;;
18702;SDS011;9481;48.796;9.210;2022-12-07T06:08:14;6.50;;;4.43;;
18702;SDS011;9481;48.796;9.210;2022-12-07T06:10:40;6.60;;;4.30;;
18702;SDS011;9481;48.796;9.210;2022-12-07T06:13:07;5.43;;;4.40;;
18702;SDS011;9481;48.796;9.210;2022-12-07T06:15:36;6.33;;;4.50;;
18702;SDS011;9481;48.796;9.210;2022-12-07T06:18:02;7.17;;;4.77;;
18702;SDS011;9481;48.796;9.210;2022-12-07T06:20:28;6.90;;;4.93;;
18702;SDS011;9481;48.796;9.210;2022-12-07T06:22:54;6.57;;;4.57;;
18702;SDS011;9481;48.796;9.210;2022-12-07T06:25:19;5.87;;;4.53;;
18702;SDS011;9481;48.796;9.210;2022-12-07T06:27:45;7.93;;;5.10;;
18702;SDS011;9481;48.796;9.210;2022-12-07T06:30:11;8.93;;;5.60;;
18702;SDS011;9481;48.796;9.210;2022-12-07T06:32:36;9.13;;;5.70;;
18702;SDS011;9481;48.796;9.210;2022-12-07T06:35:02;8.67;;;5.70;;
18702;SDS011;9481;48.796;9.210;2022-12-07T06:37:29;5.97;;;4.57;;
18702;SDS011;9481;48.796;9.210;2022-12-07T06:39:54;7.67;;;4.90;;
18702;SDS011;9481;48.796;9.210;2022-12-07T06:42:21;6.50;;;4.30;;
18702;SDS011;9481;48.796;9.210;2022-12-07T06:44:46;7.20;;;4.43;;
18702;SDS011;9481;48.796;9.210;2022-12-07T06:47:12;6.70;;;4.83;;
18702;SDS011;9481;48.796;9.210;2022-12-07T06:49:37;6.67;;;4.33;;
18702;SDS011;9481;48.796;9.210;2022-12-07T06:52:03;6.53;;;4.70;;
18702;SDS011;9481;48.796;9.210;2022-12-07T06:54:30;5.67;;;4.10;;
18702;SDS011;9481;48.796;9.210;2022-12-07T06:56:56;6.67;;;4.13;;
18702;SDS011;9481;48.796;9.210;2022-12-07T06:59:21;6.07;;;3.83;;
18702;SDS011;9481;48.796;9.210;2022-12-07T07:01:47;5.63;;;4.10;;
18702;SDS011;9481;48.796;9.210;2022-12-07T07:04:13;6.23;;;4.23;;
18702;SDS011;9481;48.796;9.210;2022-12-07T07:06:39;6.37;;;4.30;;
18702;SDS011;9481;48.796;9.210;2022-12-07T07:09:05;8.33;;;4.50;;
18702;SDS011;9481;48.796;9.210;2022-12-07T07:11:31;5.23;;;4.00;;
18702;SDS011;9481;48.796;9.210;2022-12-07T07:13:56;6.00;;;4.57;;
18702;SDS011;9481;48.796;9.210;2022-12-07T07:16:26;7.03;;;4.30;;
18702;SDS011;9481;48.796;9.210;2022-12-07T07:18:54;5.83;;;4.13;;
18702;SDS011;9481;48.796;9.210;2022-12-07T07:21:20;5.63;;;3.80;;
18702;SDS011;9481;48.796;9.210;2022-12-07T07:23:46;7.63;;;4.37;;
18702;SDS011;9481;48.796;9.210;2022-12-07T07:26:11;6.23;;;4.23;;
18702;SDS011;9481;48.796;9.210;2022-12-07T07:28:37;5.97;;;4.60;;
18702;SDS011;9481;48.796;9.210;2022-12-07T07:31:03;7.77;;;4.53;;
18702;SDS011;9481;48.796;9.210;2022-12-07T07:33:29;6.60;;;4.73;;
18702;SDS011;9481;48.796;9.210;2022-12-07T07:35:55;8.80;;;5.17;;
18702;SDS011;9481;48.796;9.210;2022-12-07T07:38:20;6.30;;;4.07;;
18702;SDS011;9481;48.796;9.210;2022-12-07T07:40:46;5.37;;;4.13;;
18702;SDS011;9481;48.796;9.210;2022-12-07T07:43:12;9.20;;;5.07;;
18702;SDS011;9481;48.796;9.210;2022-12-07T07:45:37;5.23;;;4.10;;
18702;SDS011;9481;48.796;9.210;2022-12-07T07:48:03;6.97;;;4.63;;
18702;SDS011;9481;48.796;9.210;2022-12-07T07:50:29;6.90;;;4.70;;
18702;SDS011;9481;48.796;9.210;2022-12-07T07:52:56;5.47;;;4.47;;
18702;SDS011;9481;48.796;9.210;2022-12-07T07:55:22;6.80;;;4.77;;
18702;SDS011;9481;48.796;9.210;2022-12-07T07:57:48;9.23;;;5.47;;
18702;SDS011;9481;48.796;9.210;2022-12-07T08:00:14;7.60;;;4.93;;
18702;SDS011;9481;48.796;9.210;2022-12-07T08:02:41;7.17;;;4.80;;
18702;SDS011;9481;48.796;9.210;2022-12-07T08:05:11;7.57;;;5.00;;
18702;SDS011;9481;48.796;9.210;2022-12-07T08:07:38;8.73;;;5.37;;
18702;SDS011;9481;48.796;9.210;2022-12-07T08:10:04;7.73;;;5.57;;
18702;SDS011;9481;48.796;9.210;2022-12-07T08:12:35;6.17;;;5.23;;
18702;SDS011;9481;48.796;9.210;2022-12-07T08:15:24;7.23;;;4.97;;
18702;SDS011;9481;48.796;9.210;2022-12-07T08:17:51;8.97;;;5.23;;
18702;SDS011;9481;48.796;9.210;2022-12-07T08:20:16;8.90;;;5.10;;
18702;SDS011;9481;48.796;9.210;2022-12-07T08:22:42;7.63;;;5.07;;
18702;SDS011;9481;48.796;9.210;2022-12-07T08:25:08;7.07;;;5.30;;
18702;SDS011;9481;48.796;9.210;2022-12-07T08:27:33;8.03;;;5.93;;
18702;SDS011;9481;48.796;9.210;2022-12-07T08:29:59;6.30;;;4.90;;
18702;SDS011;9481;48.796;9.210;2022-12-07T08:32:25;7.47;;;5.17;;
18702;SDS011;9481;48.796;9.210;2022-12-07T08:34:51;7.33;;;4.83;;
18702;SDS011;9481;48.796;9.210;2022-12-07T08:37:17;6.73;;;5.30;;
18702;SDS011;9481;48.796;9.210;2022-12-07T08:39:43;9.67;;;5.53;;
18702;SDS011;9481;48.796;9.210;2022-12-07T08:42:08;7.73;;;5.00;;
18702;SDS011;9481;48.796;9.210;2022-12-07T08:44:34;9.67;;;5.97;;
18702;SDS011;9481;48.796;9.210;2022-12-07T08:47:01;7.80;;;5.03;;
18702;SDS011;9481;48.796;9.210;2022-12-07T08:49:31;6.67;;;5.13;;
18702;SDS011;9481;48.796;9.210;2022-12-07T08:52:03;8.17;;;5.77;;
18702;SDS011;9481;48.796;9.210;2022-12-07T08:54:30;8.63;;;5.20;;
18702;SDS011;9481;48.796;9.210;2022-12-07T08:57:01;7.27;;;5.20;;
18702;SDS011;9481;48.796;9.210;2022-12-07T08:59:27;7.07;;;5.13;;
18702;SDS011;9481;48.796;9.210;2022-12-07T09:01:54;10.03;;;5.50;;
18702;SDS011;9481;48.796;9.210;2022-12-07T09:04:19;7.53;;;5.03;;
18702;SDS011;9481;48.796;9.210;2022-12-07T09:06:45;7.60;;;5.10;;
18702;SDS011;9481;48.796;9.210;2022-12-07T09:09:12;9.87;;;5.13;;
18702;SDS011;9481;48.796;9.210;2022-12-07T09:11:39;6.97;;;5.03;;
18702;SDS011;9481;48.796;9.210;2022-12-07T09:14:05;7.37;;;4.93;;
18702;SDS011;9481;48.796;9.210;2022-12-07T09:16:31;7.97;;;5.47;;
18702;SDS011;9481;48.796;9.210;2022-12-07T09:18:57;6.73;;;5.17;;
18702;SDS011;9481;48.796;9.210;2022-12-07T09:21:22;7.17;;;4.90;;
18702;SDS011;9481;48.796;9.210;2022-12-07T09:23:48;6.53;;;4.63;;
18702;SDS011;9481;48.796;9.210;2022-12-07T09:26:14;7.37;;;5.00;;
18702;SDS011;9481;48.796;9.210;2022-12-07T09:28:39;8.07;;;5.00;;
18702;SDS011;9481;48.796;9.210;2022-12-07T09:31:05;6.40;;;4.47;;
18702;SDS011;9481;48.796;9.210;2022-12-07T09:33:31;7.10;;;4.40;;
18702;SDS011;9481;48.796;9.210;2022-12-07T09:35:57;6.30;;;4.70;;
18702;SDS011;9481;48.796;9.210;2022-12-07T09:38:23;6.40;;;4.37;;
18702;SDS011;9481;48.796;9.210;2022-12-07T09:40:51;6.47;;;4.30;;
18702;SDS011;9481;48.796;9.210;2022-12-07T09:43:20;9.27;;;5.13;;
18702;SDS011;9481;48.796;9.210;2022-12-07T09:45:51;6.33;;;4.33;;
18702;SDS011;9481;48.796;9.210;2022-12-07T09:48:21;5.90;;;4.17;;
18702;SDS011;9481;48.796;9.210;2022-12-07T09:50:58;7.10;;;4.53;;
18702;SDS011;9481;48.796;9.210;2022-12-07T09:53:30;6.87;;;4.20;;
18702;SDS011;9481;48.796;9.210;2022-12-07T09:56:00;7.60;;;4.97;;
18702;SDS011;9481;48.796;9.210;2022-12-07T09:58:28;6.60;;;4.07;;
18702;SDS011;9481;48.796;9.210;2022-12-07T10:00:56;7.87;;;4.87;;
18702;SDS011;9481;48.796;9.210;2022-12-07T10:03:50;5.93;;;4.40;;
18702;SDS011;9481;48.796;9.210;2022-12-07T10:06:20;8.37;;;4.50;;
18702;SDS011;9481;48.796;9.210;2022-12-07T10:08:46;5.30;;;4.07;;
18702;SDS011;9481;48.796;9.210;2022-12-07T10:11:12;6.00;;;4.17;;
18702;SDS011;9481;48.796;9.210;2022-12-07T10:13:41;6.93;;;4.33;;
18702;SDS011;9481;48.796;9.210;2022-12-07T10:16:35;7.40;;;3.97;;
18702;SDS011;9481;48.796;9.210;2022-12-07T10:19:26;5.43;;;3.70;;
18702;SDS011;9481;48.796;9.210;2022-12-07T10:22:00;6.90;;;3.90;;
18702;SDS011;9481;48.796;9.210;2022-12-07T10:24:42;5.50;;;3.43;;
18702;SDS011;9481;48.796;9.210;2022-12-07T10:27:19;6.60;;;4.20;;
18702;SDS011;9481;48.796;9.210;2022-12-07T10:29:56;5.33;;;3.67;;
18702;SDS011;9481;48.796;9.210;2022-12-07T10:35:15;4.70;;;2.87;;
18702;SDS011;9481;48.796;9.210;2022-12-07T10:37:48;4.30;;;3.00;;
18702;SDS011;9481;48.796;9.210;2022-12-07T10:43:15;5.00;;;3.40;;
18702;SDS011;9481;48.796;9.210;2022-12-07T10:48:17;3.93;;;3.20;;
18702;SDS011;9481;48.796;9.210;2022-12-07T10:51:07;5.50;;;2.97;;
18702;SDS011;9481;48.796;9.210;2022-12-07T10:59:56;4.50;;;2.93;;
18702;SDS011;9481;48.796;9.210;2022-12-07T11:03:04;5.03;;;3.33;;
18702;SDS011;9481;48.796;9.210;2022-12-07T11:11:42;4.03;;;3.00;;
18702;SDS011;9481;48.796;9.210;2022-12-07T11:17:29;3.27;;;2.80;;
18702;SDS011;9481;48.796;9.210;2022-12-07T11:23:11;2.60;;;2.30;;
18702;SDS011;9481;48.796;9.210;2022-12-07T11:26:20;3.60;;;2.53;;
18702;SDS011;9481;48.796;9.210;2022-12-07T11:35:05;3.00;;;2.40;;
18702;SDS011;9481;48.796;9.210;2022-12-07T11:37:47;6.60;;;2.53;;
18702;SDS011;9481;48.796;9.210;2022-12-07T11:40:30;3.80;;;2.23;;
18702;SDS011;9481;48.796;9.210;2022-12-07T11:43:02;6.60;;;2.70;;
18702;SDS011;9481;48.796;9.210;2022-12-07T11:46:00;3.57;;;2.60;;
18702;SDS011;9481;48.796;9.210;2022-12-07T11:48:40;4.30;;;2.60;;
18702;SDS011;9481;48.796;9.210;2022-12-07T11:51:22;3.07;;;2.50;;
18702;SDS011;9481;48.796;9.210;2022-12-07T11:53:58;3.87;;;2.57;;
18702;SDS011;9481;48.796;9.210;2022-12-07T11:56:36;4.60;;;2.90;;
18702;SDS011;9481;48.796;9.210;2022-12-07T12:02:00;4.07;;;2.70;;
18702;SDS011;9481;48.796;9.210;2022-12-07T12:04:55;5.70;;;3.13;;
18702;SDS011;9481;48.796;9.210;2022-12-07T12:07:37;5.10;;;2.80;;
18702;SDS011;9481;48.796;9.210;2022-12-07T12:10:21;4.53;;;2.80;;
18702;SDS011;9481;48.796;9.210;2022-12-07T12:13:11;4.30;;;2.83;;
18702;SDS011;9481;48.796;9.210;2022-12-07T12:22:04;3.10;;;2.40;;
18702;SDS011;9481;48.796;9.210;2022-12-07T12:24:42;3.73;;;2.37;;
18702;SDS011;9481;48.796;9.210;2022-12-07T12:27:24;4.77;;;2.43;;
18702;SDS011;9481;48.796;9.210;2022-12-07T12:29:56;4.43;;;2.50;;
18702;SDS011;9481;48.796;9.210;2022-12-07T12:40:56;3.07;;;2.23;;
18702;SDS011;9481;48.796;9.210;2022-12-07T12:43:44;3.57;;;2.37;;
18702;SDS011;9481;48.796;9.210;2022-12-07T12:49:38;2.83;;;2.30;;
18702;SDS011;9481;48.796;9.210;2022-12-07T12:51:45;4.17;;;2.70;;
18702;SDS011;9481;48.796;9.210;2022-12-07T13:02:25;3.97;;;3.13;;
18702;SDS011;9481;48.796;9.210;2022-12-07T13:15:40;3.83;;;3.27;;
18702;SDS011;9481;48.796;9.210;2022-12-07T13:26:14;2.50;;;2.17;;
18702;SDS011;9481;48.796;9.210;2022-12-07T13:31:32;2.83;;;1.93;;
18702;SDS011;9481;48.796;9.210;2022-12-07T13:34:03;2.77;;;2.00;;
18702;SDS011;9481;48.796;9.210;2022-12-07T13:36:50;2.97;;;2.30;;
18702;SDS011;9481;48.796;9.210;2022-12-07T13:39:21;3.53;;;2.40;;
18702;SDS011;9481;48.796;9.210;2022-12-07T13:41:54;3.13;;;2.43;;
18702;SDS011;9481;48.796;9.210;2022-12-07T13:44:25;3.83;;;2.40;;
18702;SDS011;9481;48.796;9.210;2022-12-07T13:47:16;2.77;;;2.27;;
18702;SDS011;9481;48.796;9.210;2022-12-07T13:50:21;2.53;;;2.10;;
18702;SDS011;9481;48.796;9.210;2022-12-07T13:52:56;3.30;;;2.33;;
18702;SDS011;9481;48.796;9.210;2022-12-07T13:55:24;2.30;;;2.10;;
18702;SDS011;9481;48.796;9.210;2022-12-07T13:57:52;2.37;;;1.90;;
18702;SDS011;9481;48.796;9.210;2022-12-07T14:00:23;3.10;;;2.40;;
18702;SDS011;9481;48.796;9.210;2022-12-07T14:03:00;2.40;;;1.87;;
18702;SDS011;9481;48.796;9.210;2022-12-07T14:05:31;2.40;;;1.60;;
18702;SDS011;9481;48.796;9.210;2022-12-07T14:08:03;1.97;;;1.70;;
18702;SDS011;9481;48.796;9.210;2022-12-07T14:19:05;2.20;;;1.50;;
18702;SDS011;9481;48.796;9.210;2022-12-07T14:22:28;2.20;;;1.67;;
18702;SDS011;9481;48.796;9.210;2022-12-07T14:25:21;2.43;;;1.80;;
18702;SDS011;9481;48.796;9.210;2022-12-07T14:27:57;4.03;;;2.00;;
18702;SDS011;9481;48.796;9.210;2022-12-07T14:30:29;3.00;;;2.17;;
18702;SDS011;9481;48.796;9.210;2022-12-07T14:32:59;3.03;;;2.00;;
18702;SDS011;9481;48.796;9.210;2022-12-07T14:35:27;3.53;;;2.17;;
18702;SDS011;9481;48.796;9.210;2022-12-07T14:37:54;1.90;;;1.60;;
18702;SDS011;9481;48.796;9.210;2022-12-07T14:40:21;2.03;;;1.83;;
18702;SDS011;9481;48.796;9.210;2022-12-07T14:42:50;2.50;;;1.80;;
18702;SDS011;9481;48.796;9.210;2022-12-07T14:45:21;3.33;;;1.83;;
18702;SDS011;9481;48.796;9.210;2022-12-07T14:47:48;3.10;;;1.87;;
18702;SDS011;9481;48.796;9.210;2022-12-07T14:50:15;2.50;;;1.87;;
18702;SDS011;9481;48.796;9.210;2022-12-07T14:52:46;3.13;;;2.00;;
18702;SDS011;9481;48.796;9.210;2022-12-07T14:55:26;2.00;;;1.63;;
18702;SDS011;9481;48.796;9.210;2022-12-07T14:57:54;3.43;;;2.10;;
18702;SDS011;9481;48.796;9.210;2022-12-07T15:00:22;3.40;;;2.13;;
18702;SDS011;9481;48.796;9.210;2022-12-07T15:02:51;2.20;;;2.00;;
18702;SDS011;9481;48.796;9.210;2022-12-07T15:05:18;2.73;;;2.20;;
18702;SDS011;9481;48.796;9.210;2022-12-07T15:07:44;2.97;;;2.20;;
18702;SDS011;9481;48.796;9.210;2022-12-07T15:10:17;3.10;;;2.10;;
18702;SDS011;9481;48.796;9.210;2022-12-07T15:12:54;4.37;;;2.57;;
18702;SDS011;9481;48.796;9.210;2022-12-07T15:15:41;3.80;;;2.43;;
18702;SDS011;9481;48.796;9.210;2022-12-07T15:18:07;2.83;;;2.17;;
18702;SDS011;9481;48.796;9.210;2022-12-07T15:20:33;4.83;;;2.20;;
18702;SDS011;9481;48.796;9.210;2022-12-07T15:22:58;3.07;;;2.40;;
18702;SDS011;9481;48.796;9.210;2022-12-07T15:25:24;3.50;;;2.40;;
18702;SDS011;9481;48.796;9.210;2022-12-07T15:27:50;4.20;;;2.50;;
18702;SDS011;9481;48.796;9.210;2022-12-07T15:30:15;5.60;;;2.43;;
18702;SDS011;9481;48.796;9.210;2022-12-07T15:32:41;4.97;;;2.70;;
18702;SDS011;9481;48.796;9.210;2022-12-07T15:35:07;3.17;;;2.37;;
18702;SDS011;9481;48.796;9.210;2022-12-07T15:37:33;7.37;;;2.67;;
18702;SDS011;9481;48.796;9.210;2022-12-07T15:39:58;3.23;;;2.70;;
18702;SDS011;9481;48.796;9.210;2022-12-07T15:42:24;5.70;;;2.80;;
18702;SDS011;9481;48.796;9.210;2022-12-07T15:44:50;8.73;;;3.07;;
18702;SDS011;9481;48.796;9.210;2022-12-07T15:47:34;4.50;;;2.97;;
18702;SDS011;9481;48.796;9.210;2022-12-07T15:50:03;6.13;;;3.27;;
18702;SDS011;9481;48.796;9.210;2022-12-07T15:52:34;4.43;;;3.30;;
18702;SDS011;9481;48.796;9.210;2022-12-07T15:54:59;4.57;;;3.20;;
18702;SDS011;9481;48.796;9.210;2022-12-07T15:57:27;3.67;;;2.83;;
18702;SDS011;9481;48.796;9.210;2022-12-07T15:59:54;4.43;;;3.23;;
18702;SDS011;9481;48.796;9.210;2022-12-07T16:02:19;4.87;;;3.30;;
18702;SDS011;9481;48.796;9.210;2022-12-07T16:04:45;4.27;;;3.23;;
18702;SDS011;9481;48.796;9.210;2022-12-07T16:07:11;4.67;;;2.90;;
18702;SDS011;9481;48.796;9.210;2022-12-07T16:09:40;5.23;;;2.70;;
18702;SDS011;9481;48.796;9.210;2022-12-07T16:12:07;5.27;;;3.03;;
18702;SDS011;9481;48.796;9.210;2022-12-07T16:14:32;4.17;;;2.90;;
18702;SDS011;9481;48.796;9.210;2022-12-07T16:16:58;4.13;;;2.80;;
18702;SDS011;9481;48.796;9.210;2022-12-07T16:19:24;3.97;;;2.93;;
18702;SDS011;9481;48.796;9.210;2022-12-07T16:21:50;3.73;;;2.97;;
18702;SDS011;9481;48.796;9.210;2022-12-07T16:24:16;3.77;;;2.83;;
18702;SDS011;9481;48.796;9.210;2022-12-07T16:26:42;4.40;;;3.13;;
18702;SDS011;9481;48.796;9.210;2022-12-07T16:29:12;4.50;;;3.10;;
18702;SDS011;9481;48.796;9.210;2022-12-07T16:31:39;5.43;;;3.50;;
18702;SDS011;9481;48.796;9.210;2022-12-07T16:34:05;4.97;;;3.57;;
18702;SDS011;9481;48.796;9.210;2022-12-07T16:36:32;5.40;;;3.63;;
18702;SDS011;9481;48.796;9.210;2022-12-07T16:38:59;6.97;;;4.33;;
18702;SDS011;9481;48.796;9.210;2022-12-07T16:41:25;5.37;;;3.77;;
18702;SDS011;9481;48.796;9.210;2022-12-07T16:43:51;5.93;;;4.43;;
18702;SDS011;9481;48.796;9.210;2022-12-07T16:46:17;6.03;;;4.17;;
18702;SDS011;9481;48.796;9.210;2022-12-07T16:48:43;6.33;;;4.10;;
18702;SDS011;9481;48.796;9.210;2022-12-07T16:51:11;7.27;;;4.47;;
18702;SDS011;9481;48.796;9.210;2022-12-07T16:53:39;7.07;;;4.77;;
18702;SDS011;9481;48.796;9.210;2022-12-07T16:56:14;8.10;;;4.70;;
18702;SDS011;9481;48.796;9.210;2022-12-07T16:58:41;8.73;;;5.50;;
18702;SDS011;9481;48.796;9.210;2022-12-07T17:01:15;7.93;;;4.83;;
18702;SDS011;9481;48.796;9.210;2022-12-07T17:03:43;8.43;;;5.23;;
18702;SDS011;9481;48.796;9.210;2022-12-07T17:08:47;8.40;;;5.43;;
18702;SDS011;9481;48.796;9.210;2022-12-07T17:11:21;9.17;;;5.70;;
18702;SDS011;9481;48.796;9.210;2022-12-07T17:13:57;9.17;;;5.77;;
18702;SDS011;9481;48.796;9.210;2022-12-07T17:16:42;8.53;;;5.77;;
18702;SDS011;9481;48.796;9.210;2022-12-07T17:19:09;8.00;;;5.67;;
18702;SDS011;9481;48.796;9.210;2022-12-07T17:21:38;10.33;;;6.67;;
18702;SDS011;9481;48.796;9.210;2022-12-07T17:24:05;10.47;;;6.80;;
18702;SDS011;9481;48.796;9.210;2022-12-07T17:26:34;8.10;;;5.80;;
18702;SDS011;9481;48.796;9.210;2022-12-07T17:29:00;9.10;;;5.63;;
18702;SDS011;9481;48.796;9.210;2022-12-07T17:31:28;8.23;;;5.53;;
18702;SDS011;9481;48.796;9.210;2022-12-07T17:33:54;8.10;;;5.57;;